KELY

Ely Arpt / Yelland Field / Airport

Ely, Nevada, USA
METAR KELY 190453Z AUTO 19012KT 10SM CLR 13/M19 A2999 RMK AO2 SLP064 T01331194
Observed Flight Rules
Sep-19 @ 04:53 UTC (25 minutes ago) Visual Flight Rules
Wind Visibility Clouds
190° at 12 knots 10 miles
  • Clear skies
Temperatures Readings
Current 13°C / 55°F
Dewpoint -19°C / -2°F
Humidity 9%
Altimeter 29.99" Hg
Pressure 1006.4 hPa
Elevation 1906
METAR KELY 190453Z AUTO 19012KT 10SM CLR 13/M19 A2999 RMK AO2 SLP064 T01331194
Observed Flight Rules
Sep-19 @ 04:53 UTC
(25 minutes ago)
VFR
Wind Visibility
190° at 12 knots 10 miles
Clouds
  • Clear skies
Temperature Dewpoint
13°C / 55°F -19°C / -2°F
Humidity Altimeter Pressure
9% 29.99" Hg 1006.4 hPa